Detalii statie TARCEA AGRO TARCEA [0000197E]

Toti senzorii

Date Temperatura solului [C]Precipitatii [mm]Voltaj baterie [mV]Leaf Wetness [Min]HC Air temperature [C]HC Relative humidity [%]Punctul de roua [C]
medieminmaxsumaultimatimpmedieminmaxmediemediemin
2018-06-20 10:00:00 23 22.8 23.2 0 7226 27.24 26.06 28.7 56.59 17.6 17.1
2018-06-20 11:00:00 23.4 23.2 23.7 0 7236 28.67 27.81 29.66 50.44 17.1 16.8
2018-06-20 12:00:00 24.1 23.8 24.6 0 7236 29.89 28.34 31.79 46.15 16.8 15.9
2018-06-20 13:00:00 24.9 24.6 25.5 0 7284 31.33 30.16 32.19 39.14 15.5 14.1
2018-06-20 14:00:00 25.9 25.5 26.4 0 7274 31.99 31.16 33.2 37.14 15.3 14.9
2018-06-20 15:00:00 26.8 26.5 27.3 0 7226 31.16 30.49 32.25 38.49 15.1 14.5
2018-06-20 16:00:00 27.3 27.2 27.5 0 7206 30.69 30.48 30.95 39.23 14.9 14.6
2018-06-20 17:00:00 27.4 27.3 27.5 0 7284 31.21 30.47 31.85 38.37 15.1 14.4
2018-06-20 18:00:00 27.5 27.5 27.7 0 7186 31.04 30.6 31.73 40 15.6 15
2018-06-20 19:00:00 27.5 27.5 27.5 0 7284 29.95 29.15 30.58 42.95 15.7 15.4
2018-06-20 20:00:00 27.4 27.2 27.5 0 6992 28.04 26.9 29.14 50.79 16.6 15.9
2018-06-20 21:00:00 27 26.8 27.3 0 6894 25.49 24.74 26.64 60.05 16.9 16.8
2018-06-20 22:00:00 26.7 26.5 26.9 0 6884 22.86 21.77 24.7 76.74 18.3 16.9
2018-06-20 23:00:00 26.2 25.9 26.5 0 6864 21.55 21.02 21.85 84.04 18.5 18.1
2018-06-21 00:00:00 25.7 25.6 25.9 0 6844 20.49 20.03 21.15 91.99 19 18.2
2018-06-21 01:00:00 25.4 25.2 25.7 0 6826 19.92 19.46 20.28 95.99 19.1 18.5
2018-06-21 02:00:00 25 24.8 25.3 0 6834 19.12 18.89 19.36 99.17 18.8 18.6
2018-06-21 03:00:00 24.7 24.6 24.9 0 6834 18.85 18.47 19.14 100 18.8 18.4
2018-06-21 04:00:00 24.5 24.3 24.6 0 6826 18.2 17.73 18.78 100 18.1 17.7
2018-06-21 05:00:00 24.2 24 24.4 0 6816 17.71 17.36 18.22 100 17.6 17.3
2018-06-21 06:00:00 23.8 23.7 24 0 6854 17.88 17.37 18.59 100 17.8 17.3
2018-06-21 07:00:00 23.7 23.6 23.9 0 6962 19.87 18.8 21.32 99.85 19.8 18.8
2018-06-21 08:00:00 23.5 23.5 23.7 0 7010 23.57 21.63 25.64 82.75 20.2 19.2
2018-06-21 09:00:00 23.5 23.5 23.7 0 7284 26.95 26.15 27.66 60.07 18.3 16.4
2018-06-21 10:00:00 23.7 23.6 24 0 7284 29.39 28.19 30.26 47.28 16.7 15.8
2018-06-21 11:00:00 24.2 24 24.6 0 7284 30.72 30.17 31.49 44.74 17.1 16.3
2018-06-21 12:00:00 24.9 24.6 25.3 0 7226 31.76 31.23 32.68 41.08 16.6 15.9
2018-06-21 13:00:00 25.6 25.2 26.2 0 7284 31.39 30.7 32.53 42.47 16.8 16.3
2018-06-21 14:00:00 26.5 26 26.8 0 7284 30.84 30.45 31.58 45.29 17.3 16.9
2018-06-21 15:00:00 26.9 26.8 27.1 0 7206 30.51 30.24 30.8 46.08 17.4 16
2018-06-21 16:00:00 27.1 27 27.3 0 7284 30.56 29.81 31.18 44.6 16.8 15.8
2018-06-21 17:00:00 27.2 27.1 27.3 0 7284 29.3 28.37 29.75 53.62 18.7 16.7
2018-06-21 18:00:00 27.2 27.2 27.3 0 7284 27.07 26.12 28.18 55.75 17.3 16.8
2018-06-21 19:00:00 27 26.8 27.2 0 7166 25.76 25.45 26.03 65.2 18.5 17.9
2018-06-21 20:00:00 26.8 26.8 27.1 0 6982 24.85 24.21 25.34 70.47 18.9 18.8
2018-06-21 21:00:00 26.5 26.4 26.9 0 6942 23.37 22.68 24.13 78.78 19.3 19.2
2018-06-21 22:00:00 26.2 25.9 26.5 0 6914 22.78 22.7 22.9 78.92 18.8 18.3
2018-06-21 23:00:00 25.8 25.5 26.1 0 6854 22.12 21.51 22.9 79.76 18.3 18.2
2018-06-22 00:00:00 25.5 25.3 25.7 0 6844 21.14 20.82 21.56 85.07 18.4 18.2
2018-06-22 01:00:00 25.2 25 25.5 0 6834 20.71 20.43 20.86 83.44 17.6 17.3
2018-06-22 02:00:00 24.9 24.8 25 0 6834 20.11 19.81 20.36 84.67 17.3 17.1
2018-06-22 03:00:00 24.6 24.4 24.8 0 6834 20.72 20.55 20.87 80.71 17.1 17
2018-06-22 04:00:00 24.4 24.2 24.6 0 6826 20.41 20.28 20.56 83.43 17.3 17.2
2018-06-22 05:00:00 24.2 24.1 24.4 0 6826 20.74 20.41 22.08 82.32 17.4 16.9
2018-06-22 06:00:00 24.1 23.9 24.3 0 6816 19.22 17.88 21.82 77.38 14.9 13.3
2018-06-22 07:00:00 23.8 23.6 24 1.8 6844 16.91 16.31 17.88 87.36 14.6 13.5
2018-06-22 08:00:00 23.5 23.4 23.8 0 6942 16.56 16.38 16.88 97.23 15.9 15.4